sensor_id;sensor_type;location;lat;lon;timestamp;P1;durP1;ratioP1;P2;durP2;ratioP2
22425;SDS011;11380;50.822;15.790;2022-12-29T00:01:05;46.90;;;43.40;;
22425;SDS011;11380;50.822;15.790;2022-12-29T00:06:11;46.73;;;43.33;;
22425;SDS011;11380;50.822;15.790;2022-12-29T00:11:20;46.37;;;42.97;;
22425;SDS011;11380;50.822;15.790;2022-12-29T00:16:30;46.70;;;43.30;;
22425;SDS011;11380;50.822;15.790;2022-12-29T00:21:38;46.37;;;42.98;;
22425;SDS011;11380;50.822;15.790;2022-12-29T00:32:30;47.23;;;43.63;;
22425;SDS011;11380;50.822;15.790;2022-12-29T00:37:55;46.53;;;43.13;;
22425;SDS011;11380;50.822;15.790;2022-12-29T00:43:19;47.37;;;43.87;;
22425;SDS011;11380;50.822;15.790;2022-12-29T00:48:43;47.07;;;43.47;;
22425;SDS011;11380;50.822;15.790;2022-12-29T00:54:07;46.80;;;43.33;;
22425;SDS011;11380;50.822;15.790;2022-12-29T00:59:14;46.53;;;43.13;;
22425;SDS011;11380;50.822;15.790;2022-12-29T01:04:22;46.80;;;43.40;;
22425;SDS011;11380;50.822;15.790;2022-12-29T01:09:30;46.50;;;43.13;;
22425;SDS011;11380;50.822;15.790;2022-12-29T01:14:55;46.70;;;43.20;;
22425;SDS011;11380;50.822;15.790;2022-12-29T01:25:07;46.80;;;43.40;;
22425;SDS011;11380;50.822;15.790;2022-12-29T01:30:14;46.48;;;43.08;;
22425;SDS011;11380;50.822;15.790;2022-12-29T01:35:22;46.30;;;42.93;;
22425;SDS011;11380;50.822;15.790;2022-12-29T01:40:29;46.90;;;43.40;;
22425;SDS011;11380;50.822;15.790;2022-12-29T01:50:43;45.85;;;42.60;;
22425;SDS011;11380;50.822;15.790;2022-12-29T01:55:54;47.00;;;43.60;;
22425;SDS011;11380;50.822;15.790;2022-12-29T02:01:02;46.70;;;43.30;;
22425;SDS011;11380;50.822;15.790;2022-12-29T02:11:38;47.35;;;43.85;;
22425;SDS011;11380;50.822;15.790;2022-12-29T02:22:44;46.58;;;43.13;;
22425;SDS011;11380;50.822;15.790;2022-12-29T02:33:48;46.93;;;43.50;;
22425;SDS011;11380;50.822;15.790;2022-12-29T02:50:17;47.13;;;43.63;;
22425;SDS011;11380;50.822;15.790;2022-12-29T02:55:32;47.40;;;43.90;;
22425;SDS011;11380;50.822;15.790;2022-12-29T03:06:06;47.27;;;43.77;;
22425;SDS011;11380;50.822;15.790;2022-12-29T03:11:14;47.08;;;43.58;;
22425;SDS011;11380;50.822;15.790;2022-12-29T03:16:45;47.27;;;43.75;;
22425;SDS011;11380;50.822;15.790;2022-12-29T03:22:08;46.97;;;43.50;;
22425;SDS011;11380;50.822;15.790;2022-12-29T03:27:32;47.80;;;44.10;;
22425;SDS011;11380;50.822;15.790;2022-12-29T03:32:48;47.93;;;44.27;;
22425;SDS011;11380;50.822;15.790;2022-12-29T03:43:24;47.40;;;43.87;;
22425;SDS011;11380;50.822;15.790;2022-12-29T03:48:31;47.48;;;43.98;;
22425;SDS011;11380;50.822;15.790;2022-12-29T03:53:39;47.43;;;43.93;;
22425;SDS011;11380;50.822;15.790;2022-12-29T03:58:46;47.03;;;43.53;;
22425;SDS011;11380;50.822;15.790;2022-12-29T04:03:53;46.92;;;43.52;;
22425;SDS011;11380;50.822;15.790;2022-12-29T04:09:00;47.20;;;43.70;;
22425;SDS011;11380;50.822;15.790;2022-12-29T04:14:07;47.67;;;44.07;;
22425;SDS011;11380;50.822;15.790;2022-12-29T04:24:22;47.17;;;43.47;;
22425;SDS011;11380;50.822;15.790;2022-12-29T04:29:28;47.10;;;43.60;;
22425;SDS011;11380;50.822;15.790;2022-12-29T04:34:35;34.00;;;31.45;;
22425;SDS011;11380;50.822;15.790;2022-12-29T04:39:41;47.43;;;43.83;;
22425;SDS011;11380;50.822;15.790;2022-12-29T04:44:48;47.08;;;43.52;;
22425;SDS011;11380;50.822;15.790;2022-12-29T04:49:54;47.60;;;43.90;;
22425;SDS011;11380;50.822;15.790;2022-12-29T04:55:01;47.40;;;43.80;;
22425;SDS011;11380;50.822;15.790;2022-12-29T05:00:08;47.87;;;44.27;;
22425;SDS011;11380;50.822;15.790;2022-12-29T05:05:15;47.60;;;44.00;;
22425;SDS011;11380;50.822;15.790;2022-12-29T05:10:23;48.05;;;44.35;;
22425;SDS011;11380;50.822;15.790;2022-12-29T05:15:29;47.83;;;44.05;;
22425;SDS011;11380;50.822;15.790;2022-12-29T05:20:36;48.80;;;44.63;;
22425;SDS011;11380;50.822;15.790;2022-12-29T05:25:43;48.43;;;44.63;;
22425;SDS011;11380;50.822;15.790;2022-12-29T05:35:55;47.53;;;43.93;;
22425;SDS011;11380;50.822;15.790;2022-12-29T05:41:02;47.35;;;43.80;;
22425;SDS011;11380;50.822;15.790;2022-12-29T05:46:09;47.93;;;44.23;;
22425;SDS011;11380;50.822;15.790;2022-12-29T05:51:17;47.57;;;43.97;;
22425;SDS011;11380;50.822;15.790;2022-12-29T05:56:23;47.52;;;43.96;;
22425;SDS011;11380;50.822;15.790;2022-12-29T06:01:30;48.20;;;44.60;;
22425;SDS011;11380;50.822;15.790;2022-12-29T06:06:38;47.67;;;44.07;;
22425;SDS011;11380;50.822;15.790;2022-12-29T06:11:44;47.83;;;44.20;;
22425;SDS011;11380;50.822;15.790;2022-12-29T06:21:56;47.75;;;44.15;;
22425;SDS011;11380;50.822;15.790;2022-12-29T06:27:02;47.85;;;44.20;;
22425;SDS011;11380;50.822;15.790;2022-12-29T06:32:10;48.30;;;44.50;;
22425;SDS011;11380;50.822;15.790;2022-12-29T06:37:16;47.88;;;44.27;;
22425;SDS011;11380;50.822;15.790;2022-12-29T06:42:23;47.67;;;44.08;;
22425;SDS011;11380;50.822;15.790;2022-12-29T06:52:36;47.43;;;43.83;;
22425;SDS011;11380;50.822;15.790;2022-12-29T06:57:42;46.28;;;42.88;;
22425;SDS011;11380;50.822;15.790;2022-12-29T07:02:49;46.92;;;43.42;;
22425;SDS011;11380;50.822;15.790;2022-12-29T07:07:56;47.07;;;43.57;;
22425;SDS011;11380;50.822;15.790;2022-12-29T07:13:03;47.30;;;43.80;;
22425;SDS011;11380;50.822;15.790;2022-12-29T07:18:12;47.67;;;44.07;;
22425;SDS011;11380;50.822;15.790;2022-12-29T07:23:19;47.90;;;44.27;;
22425;SDS011;11380;50.822;15.790;2022-12-29T07:33:32;48.03;;;44.33;;
22425;SDS011;11380;50.822;15.790;2022-12-29T07:38:39;47.95;;;44.33;;
22425;SDS011;11380;50.822;15.790;2022-12-29T07:43:46;48.33;;;44.63;;
22425;SDS011;11380;50.822;15.790;2022-12-29T07:48:53;48.03;;;44.37;;
22425;SDS011;11380;50.822;15.790;2022-12-29T07:53:59;48.28;;;44.60;;
22425;SDS011;11380;50.822;15.790;2022-12-29T07:59:06;48.58;;;44.67;;
22425;SDS011;11380;50.822;15.790;2022-12-29T08:04:12;48.07;;;44.30;;
22425;SDS011;11380;50.822;15.790;2022-12-29T08:09:19;48.25;;;44.55;;
22425;SDS011;11380;50.822;15.790;2022-12-29T08:14:27;47.74;;;44.06;;
22425;SDS011;11380;50.822;15.790;2022-12-29T08:19:34;48.68;;;44.88;;
22425;SDS011;11380;50.822;15.790;2022-12-29T08:24:41;48.50;;;44.70;;
22425;SDS011;11380;50.822;15.790;2022-12-29T08:29:48;47.77;;;43.87;;
22425;SDS011;11380;50.822;15.790;2022-12-29T08:34:55;48.65;;;44.85;;
22425;SDS011;11380;50.822;15.790;2022-12-29T08:40:02;48.43;;;44.67;;
22425;SDS011;11380;50.822;15.790;2022-12-29T08:45:09;47.83;;;44.23;;
22425;SDS011;11380;50.822;15.790;2022-12-29T08:50:16;48.30;;;44.60;;
22425;SDS011;11380;50.822;15.790;2022-12-29T08:55:24;48.47;;;44.63;;
22425;SDS011;11380;50.822;15.790;2022-12-29T09:00:31;48.37;;;44.67;;
22425;SDS011;11380;50.822;15.790;2022-12-29T09:05:38;48.98;;;45.12;;
22425;SDS011;11380;50.822;15.790;2022-12-29T09:10:47;48.43;;;44.70;;
22425;SDS011;11380;50.822;15.790;2022-12-29T09:15:58;48.60;;;44.80;;
22425;SDS011;11380;50.822;15.790;2022-12-29T09:21:05;47.80;;;44.10;;
22425;SDS011;11380;50.822;15.790;2022-12-29T09:26:14;48.30;;;44.50;;
22425;SDS011;11380;50.822;15.790;2022-12-29T09:31:21;48.98;;;45.08;;
22425;SDS011;11380;50.822;15.790;2022-12-29T09:36:30;48.70;;;44.90;;
22425;SDS011;11380;50.822;15.790;2022-12-29T09:41:43;48.73;;;44.85;;
22425;SDS011;11380;50.822;15.790;2022-12-29T09:46:48;48.87;;;45.07;;
22425;SDS011;11380;50.822;15.790;2022-12-29T09:51:59;49.00;;;45.00;;
22425;SDS011;11380;50.822;15.790;2022-12-29T09:57:12;48.63;;;44.83;;
22425;SDS011;11380;50.822;15.790;2022-12-29T10:02:34;48.78;;;44.98;;
22425;SDS011;11380;50.822;15.790;2022-12-29T10:13:13;49.42;;;45.52;;
22425;SDS011;11380;50.822;15.790;2022-12-29T10:19:01;48.93;;;45.00;;
22425;SDS011;11380;50.822;15.790;2022-12-29T10:24:34;48.63;;;44.83;;
22425;SDS011;11380;50.822;15.790;2022-12-29T10:29:52;49.33;;;45.37;;
22425;SDS011;11380;50.822;15.790;2022-12-29T10:35:03;49.00;;;45.10;;
22425;SDS011;11380;50.822;15.790;2022-12-29T10:40:42;48.83;;;44.93;;
22425;SDS011;11380;50.822;15.790;2022-12-29T10:45:57;49.27;;;45.43;;
22425;SDS011;11380;50.822;15.790;2022-12-29T10:51:08;50.00;;;45.67;;
22425;SDS011;11380;50.822;15.790;2022-12-29T11:07:18;49.73;;;45.67;;
22425;SDS011;11380;50.822;15.790;2022-12-29T11:12:29;49.30;;;45.40;;
22425;SDS011;11380;50.822;15.790;2022-12-29T11:17:49;49.40;;;45.47;;
22425;SDS011;11380;50.822;15.790;2022-12-29T11:22:59;49.57;;;45.67;;
22425;SDS011;11380;50.822;15.790;2022-12-29T11:28:15;49.10;;;45.30;;
22425;SDS011;11380;50.822;15.790;2022-12-29T11:33:23;49.08;;;45.22;;
22425;SDS011;11380;50.822;15.790;2022-12-29T11:38:48;48.13;;;44.45;;
22425;SDS011;11380;50.822;15.790;2022-12-29T11:44:02;49.03;;;45.07;;
22425;SDS011;11380;50.822;15.790;2022-12-29T11:49:11;48.80;;;44.90;;
22425;SDS011;11380;50.822;15.790;2022-12-29T11:54:31;48.00;;;44.33;;
22425;SDS011;11380;50.822;15.790;2022-12-29T11:59:41;48.28;;;44.58;;
22425;SDS011;11380;50.822;15.790;2022-12-29T12:04:51;49.33;;;45.33;;
22425;SDS011;11380;50.822;15.790;2022-12-29T12:10:23;48.53;;;44.70;;
22425;SDS011;11380;50.822;15.790;2022-12-29T12:15:46;48.38;;;44.67;;
22425;SDS011;11380;50.822;15.790;2022-12-29T12:21:09;48.77;;;44.97;;
22425;SDS011;11380;50.822;15.790;2022-12-29T12:26:30;49.10;;;45.22;;
22425;SDS011;11380;50.822;15.790;2022-12-29T12:36:59;49.23;;;45.33;;
22425;SDS011;11380;50.822;15.790;2022-12-29T12:54:02;49.47;;;45.47;;
22425;SDS011;11380;50.822;15.790;2022-12-29T12:59:45;48.70;;;44.80;;
22425;SDS011;11380;50.822;15.790;2022-12-29T13:21:30;49.53;;;45.60;;
22425;SDS011;11380;50.822;15.790;2022-12-29T13:27:13;49.60;;;45.70;;
22425;SDS011;11380;50.822;15.790;2022-12-29T13:32:35;49.37;;;45.47;;
22425;SDS011;11380;50.822;15.790;2022-12-29T13:38:07;49.03;;;45.23;;
22425;SDS011;11380;50.822;15.790;2022-12-29T13:43:20;49.37;;;45.53;;
22425;SDS011;11380;50.822;15.790;2022-12-29T13:48:53;51.00;;;46.80;;
22425;SDS011;11380;50.822;15.790;2022-12-29T13:54:12;49.23;;;45.13;;
22425;SDS011;11380;50.822;15.790;2022-12-29T14:04:59;49.63;;;45.63;;
22425;SDS011;11380;50.822;15.790;2022-12-29T14:15:57;48.77;;;44.87;;
22425;SDS011;11380;50.822;15.790;2022-12-29T14:31:40;48.65;;;44.85;;
22425;SDS011;11380;50.822;15.790;2022-12-29T14:37:00;49.50;;;45.52;;
22425;SDS011;11380;50.822;15.790;2022-12-29T14:58:00;50.47;;;46.27;;
22425;SDS011;11380;50.822;15.790;2022-12-29T15:03:16;49.53;;;45.67;;
22425;SDS011;11380;50.822;15.790;2022-12-29T15:14:33;49.44;;;45.50;;
22425;SDS011;11380;50.822;15.790;2022-12-29T15:19:42;48.80;;;44.80;;
22425;SDS011;11380;50.822;15.790;2022-12-29T15:29:57;49.53;;;45.43;;
22425;SDS011;11380;50.822;15.790;2022-12-29T15:40:50;49.58;;;45.60;;
22425;SDS011;11380;50.822;15.790;2022-12-29T15:45:50;49.23;;;45.37;;
22425;SDS011;11380;50.822;15.790;2022-12-29T15:50:58;49.47;;;45.57;;
22425;SDS011;11380;50.822;15.790;2022-12-29T15:56:06;50.30;;;46.23;;
22425;SDS011;11380;50.822;15.790;2022-12-29T16:01:19;50.43;;;46.43;;
22425;SDS011;11380;50.822;15.790;2022-12-29T16:06:38;50.90;;;46.77;;
22425;SDS011;11380;50.822;15.790;2022-12-29T16:11:51;49.80;;;45.77;;
22425;SDS011;11380;50.822;15.790;2022-12-29T16:17:02;50.53;;;46.50;;
22425;SDS011;11380;50.822;15.790;2022-12-29T16:22:20;50.48;;;46.28;;
22425;SDS011;11380;50.822;15.790;2022-12-29T16:27:39;49.08;;;45.17;;
22425;SDS011;11380;50.822;15.790;2022-12-29T16:32:48;50.53;;;46.43;;
22425;SDS011;11380;50.822;15.790;2022-12-29T16:38:12;49.23;;;45.40;;
22425;SDS011;11380;50.822;15.790;2022-12-29T16:43:31;49.77;;;45.70;;
22425;SDS011;11380;50.822;15.790;2022-12-29T16:48:46;48.83;;;45.03;;
22425;SDS011;11380;50.822;15.790;2022-12-29T16:54:00;49.83;;;45.80;;
22425;SDS011;11380;50.822;15.790;2022-12-29T16:59:57;50.00;;;45.90;;
22425;SDS011;11380;50.822;15.790;2022-12-29T17:04:40;49.93;;;45.93;;
22425;SDS011;11380;50.822;15.790;2022-12-29T17:09:50;49.20;;;45.30;;
22425;SDS011;11380;50.822;15.790;2022-12-29T17:15:04;49.13;;;45.27;;
22425;SDS011;11380;50.822;15.790;2022-12-29T17:20:17;49.17;;;45.23;;
22425;SDS011;11380;50.822;15.790;2022-12-29T17:25:33;49.27;;;45.37;;
22425;SDS011;11380;50.822;15.790;2022-12-29T17:30:42;49.35;;;45.43;;
22425;SDS011;11380;50.822;15.790;2022-12-29T17:35:51;50.27;;;45.90;;
22425;SDS011;11380;50.822;15.790;2022-12-29T17:40:58;49.97;;;45.87;;
22425;SDS011;11380;50.822;15.790;2022-12-29T17:46:06;50.53;;;46.50;;
22425;SDS011;11380;50.822;15.790;2022-12-29T17:51:13;49.23;;;45.33;;
22425;SDS011;11380;50.822;15.790;2022-12-29T17:56:20;49.93;;;45.92;;
22425;SDS011;11380;50.822;15.790;2022-12-29T18:01:27;48.93;;;45.13;;
22425;SDS011;11380;50.822;15.790;2022-12-29T18:06:36;49.90;;;45.90;;
22425;SDS011;11380;50.822;15.790;2022-12-29T18:11:44;49.60;;;45.60;;
22425;SDS011;11380;50.822;15.790;2022-12-29T18:21:56;50.08;;;46.13;;
22425;SDS011;11380;50.822;15.790;2022-12-29T18:27:13;51.53;;;47.23;;
22425;SDS011;11380;50.822;15.790;2022-12-29T18:32:24;51.68;;;47.27;;
22425;SDS011;11380;50.822;15.790;2022-12-29T18:37:31;52.07;;;47.77;;
22425;SDS011;11380;50.822;15.790;2022-12-29T18:42:39;51.02;;;46.80;;
22425;SDS011;11380;50.822;15.790;2022-12-29T18:52:54;53.90;;;49.17;;
22425;SDS011;11380;50.822;15.790;2022-12-29T18:58:04;52.63;;;48.17;;
22425;SDS011;11380;50.822;15.790;2022-12-29T19:03:12;51.50;;;47.17;;
22425;SDS011;11380;50.822;15.790;2022-12-29T19:08:23;52.23;;;48.00;;
22425;SDS011;11380;50.822;15.790;2022-12-29T19:13:31;52.40;;;47.90;;
22425;SDS011;11380;50.822;15.790;2022-12-29T19:18:38;51.63;;;47.47;;
22425;SDS011;11380;50.822;15.790;2022-12-29T19:23:47;53.10;;;48.60;;
22425;SDS011;11380;50.822;15.790;2022-12-29T19:28:55;53.47;;;48.77;;
22425;SDS011;11380;50.822;15.790;2022-12-29T19:39:08;54.70;;;49.50;;
22425;SDS011;11380;50.822;15.790;2022-12-29T19:44:16;50.77;;;46.60;;
22425;SDS011;11380;50.822;15.790;2022-12-29T19:49:24;50.57;;;46.40;;
22425;SDS011;11380;50.822;15.790;2022-12-29T19:54:31;49.70;;;45.70;;
22425;SDS011;11380;50.822;15.790;2022-12-29T19:59:38;50.87;;;46.50;;
22425;SDS011;11380;50.822;15.790;2022-12-29T20:04:44;54.87;;;49.87;;
22425;SDS011;11380;50.822;15.790;2022-12-29T20:09:53;52.63;;;48.17;;
22425;SDS011;11380;50.822;15.790;2022-12-29T20:14:59;50.50;;;46.30;;
22425;SDS011;11380;50.822;15.790;2022-12-29T20:20:06;50.83;;;46.70;;
22425;SDS011;11380;50.822;15.790;2022-12-29T20:25:14;48.93;;;45.03;;
22425;SDS011;11380;50.822;15.790;2022-12-29T20:30:22;50.20;;;46.03;;
22425;SDS011;11380;50.822;15.790;2022-12-29T20:35:30;52.70;;;47.88;;
22425;SDS011;11380;50.822;15.790;2022-12-29T20:40:51;60.97;;;54.80;;
22425;SDS011;11380;50.822;15.790;2022-12-29T20:45:53;53.43;;;48.93;;
22425;SDS011;11380;50.822;15.790;2022-12-29T20:51:00;50.17;;;46.15;;
22425;SDS011;11380;50.822;15.790;2022-12-29T20:56:09;49.23;;;45.43;;
22425;SDS011;11380;50.822;15.790;2022-12-29T21:01:21;50.43;;;46.23;;
22425;SDS011;11380;50.822;15.790;2022-12-29T21:06:30;48.70;;;44.83;;
22425;SDS011;11380;50.822;15.790;2022-12-29T21:11:38;48.67;;;44.87;;
22425;SDS011;11380;50.822;15.790;2022-12-29T21:16:48;50.20;;;46.07;;
22425;SDS011;11380;50.822;15.790;2022-12-29T21:21:55;49.23;;;45.37;;
22425;SDS011;11380;50.822;15.790;2022-12-29T21:27:02;48.80;;;45.00;;
22425;SDS011;11380;50.822;15.790;2022-12-29T21:32:10;48.00;;;44.30;;
22425;SDS011;11380;50.822;15.790;2022-12-29T21:37:17;47.70;;;44.10;;
22425;SDS011;11380;50.822;15.790;2022-12-29T21:42:25;48.77;;;45.07;;
22425;SDS011;11380;50.822;15.790;2022-12-29T21:47:32;47.30;;;43.75;;
22425;SDS011;11380;50.822;15.790;2022-12-29T21:52:56;48.20;;;44.47;;
22425;SDS011;11380;50.822;15.790;2022-12-29T21:58:04;50.73;;;46.67;;
22425;SDS011;11380;50.822;15.790;2022-12-29T22:03:28;53.26;;;48.48;;
22425;SDS011;11380;50.822;15.790;2022-12-29T22:08:52;51.20;;;46.87;;
22425;SDS011;11380;50.822;15.790;2022-12-29T22:14:18;53.70;;;49.00;;
22425;SDS011;11380;50.822;15.790;2022-12-29T22:19:25;49.40;;;45.43;;
22425;SDS011;11380;50.822;15.790;2022-12-29T22:24:31;51.08;;;46.85;;
22425;SDS011;11380;50.822;15.790;2022-12-29T22:29:38;50.50;;;46.17;;
22425;SDS011;11380;50.822;15.790;2022-12-29T22:34:46;48.93;;;45.20;;
22425;SDS011;11380;50.822;15.790;2022-12-29T22:39:53;50.52;;;46.30;;
22425;SDS011;11380;50.822;15.790;2022-12-29T22:45:00;49.18;;;45.25;;
22425;SDS011;11380;50.822;15.790;2022-12-29T22:50:07;47.10;;;43.65;;
22425;SDS011;11380;50.822;15.790;2022-12-29T22:55:14;50.00;;;45.93;;
22425;SDS011;11380;50.822;15.790;2022-12-29T23:00:21;50.90;;;46.77;;
22425;SDS011;11380;50.822;15.790;2022-12-29T23:05:27;46.88;;;43.45;;
22425;SDS011;11380;50.822;15.790;2022-12-29T23:10:34;49.07;;;45.20;;
22425;SDS011;11380;50.822;15.790;2022-12-29T23:20:47;46.63;;;43.20;;
22425;SDS011;11380;50.822;15.790;2022-12-29T23:25:54;47.50;;;43.87;;
22425;SDS011;11380;50.822;15.790;2022-12-29T23:31:01;48.43;;;44.57;;
22425;SDS011;11380;50.822;15.790;2022-12-29T23:36:09;48.07;;;44.37;;
22425;SDS011;11380;50.822;15.790;2022-12-29T23:41:16;50.07;;;46.13;;
22425;SDS011;11380;50.822;15.790;2022-12-29T23:46:25;49.63;;;45.60;;
22425;SDS011;11380;50.822;15.790;2022-12-29T23:51:35;49.10;;;44.90;;
22425;SDS011;11380;50.822;15.790;2022-12-29T23:56:42;51.23;;;47.03;;
